sensor_id;sensor_type;location;lat;lon;timestamp;temperature;humidity
49777;DHT22;35673;51.482;7.436;2023-03-24T00:02:20;11.90;99.90
49777;DHT22;35673;51.482;7.436;2023-03-24T00:04:46;11.90;99.90
49777;DHT22;35673;51.482;7.436;2023-03-24T00:07:13;11.90;99.90
49777;DHT22;35673;51.482;7.436;2023-03-24T00:09:41;11.90;99.90
49777;DHT22;35673;51.482;7.436;2023-03-24T00:12:07;11.90;99.90
49777;DHT22;35673;51.482;7.436;2023-03-24T00:14:34;12.00;99.90
49777;DHT22;35673;51.482;7.436;2023-03-24T00:16:59;11.90;99.90
49777;DHT22;35673;51.482;7.436;2023-03-24T00:19:25;11.90;99.90
49777;DHT22;35673;51.482;7.436;2023-03-24T00:21:51;12.00;99.90
49777;DHT22;35673;51.482;7.436;2023-03-24T00:24:20;12.00;99.90
49777;DHT22;35673;51.482;7.436;2023-03-24T00:26:45;11.90;99.90
49777;DHT22;35673;51.482;7.436;2023-03-24T00:29:13;12.00;99.90
49777;DHT22;35673;51.482;7.436;2023-03-24T00:31:38;12.00;99.90
49777;DHT22;35673;51.482;7.436;2023-03-24T00:34:07;11.90;99.90
49777;DHT22;35673;51.482;7.436;2023-03-24T00:36:35;11.90;99.90
49777;DHT22;35673;51.482;7.436;2023-03-24T00:39:01;12.00;99.90
49777;DHT22;35673;51.482;7.436;2023-03-24T00:41:27;12.00;99.90
49777;DHT22;35673;51.482;7.436;2023-03-24T00:43:57;12.00;99.90
49777;DHT22;35673;51.482;7.436;2023-03-24T00:46:23;12.00;99.90
49777;DHT22;35673;51.482;7.436;2023-03-24T00:48:53;12.00;99.90
49777;DHT22;35673;51.482;7.436;2023-03-24T00:51:22;12.10;99.90
49777;DHT22;35673;51.482;7.436;2023-03-24T00:53:48;12.10;99.90
49777;DHT22;35673;51.482;7.436;2023-03-24T00:56:13;12.20;99.90
49777;DHT22;35673;51.482;7.436;2023-03-24T00:58:39;12.20;99.90
49777;DHT22;35673;51.482;7.436;2023-03-24T01:01:05;12.20;99.90
49777;DHT22;35673;51.482;7.436;2023-03-24T01:03:31;12.20;99.90
49777;DHT22;35673;51.482;7.436;2023-03-24T01:06:01;12.20;99.90
49777;DHT22;35673;51.482;7.436;2023-03-24T01:08:27;12.20;99.90
49777;DHT22;35673;51.482;7.436;2023-03-24T01:10:53;12.30;99.90
49777;DHT22;35673;51.482;7.436;2023-03-24T01:13:24;12.30;99.90
49777;DHT22;35673;51.482;7.436;2023-03-24T01:15:50;12.20;99.90
49777;DHT22;35673;51.482;7.436;2023-03-24T01:18:16;12.20;99.90
49777;DHT22;35673;51.482;7.436;2023-03-24T01:20:43;12.20;99.90
49777;DHT22;35673;51.482;7.436;2023-03-24T01:23:14;12.30;99.90
49777;DHT22;35673;51.482;7.436;2023-03-24T01:25:40;12.30;99.90
49777;DHT22;35673;51.482;7.436;2023-03-24T01:28:10;12.40;99.90
49777;DHT22;35673;51.482;7.436;2023-03-24T01:30:37;12.30;99.90
49777;DHT22;35673;51.482;7.436;2023-03-24T01:33:02;12.30;99.90
49777;DHT22;35673;51.482;7.436;2023-03-24T01:35:28;12.30;99.90
49777;DHT22;35673;51.482;7.436;2023-03-24T01:37:53;12.20;99.90
49777;DHT22;35673;51.482;7.436;2023-03-24T01:40:20;12.20;99.90
49777;DHT22;35673;51.482;7.436;2023-03-24T01:42:46;12.10;99.90
49777;DHT22;35673;51.482;7.436;2023-03-24T01:47:55;12.10;99.90
49777;DHT22;35673;51.482;7.436;2023-03-24T01:50:21;12.10;99.90
49777;DHT22;35673;51.482;7.436;2023-03-24T01:52:47;12.10;99.90
49777;DHT22;35673;51.482;7.436;2023-03-24T01:55:13;12.10;99.90
49777;DHT22;35673;51.482;7.436;2023-03-24T01:57:50;12.10;99.90
49777;DHT22;35673;51.482;7.436;2023-03-24T02:00:18;12.10;99.90
49777;DHT22;35673;51.482;7.436;2023-03-24T02:02:45;12.20;99.90
49777;DHT22;35673;51.482;7.436;2023-03-24T02:05:13;12.10;99.90
49777;DHT22;35673;51.482;7.436;2023-03-24T02:10:08;12.20;99.90
49777;DHT22;35673;51.482;7.436;2023-03-24T02:12:34;12.30;99.90
49777;DHT22;35673;51.482;7.436;2023-03-24T02:15:01;12.30;99.90
49777;DHT22;35673;51.482;7.436;2023-03-24T02:35:22;12.50;99.90
49777;DHT22;35673;51.482;7.436;2023-03-24T02:54:14;12.30;99.90
49777;DHT22;35673;51.482;7.436;2023-03-24T02:56:09;12.40;99.90
49777;DHT22;35673;51.482;7.436;2023-03-24T02:58:38;12.40;99.90
49777;DHT22;35673;51.482;7.436;2023-03-24T03:01:12;12.40;99.90
49777;DHT22;35673;51.482;7.436;2023-03-24T03:03:41;12.40;99.90
49777;DHT22;35673;51.482;7.436;2023-03-24T03:06:13;12.40;99.90
49777;DHT22;35673;51.482;7.436;2023-03-24T03:08:40;12.30;99.90
49777;DHT22;35673;51.482;7.436;2023-03-24T03:11:06;12.30;99.90
49777;DHT22;35673;51.482;7.436;2023-03-24T03:13:33;12.30;99.90
49777;DHT22;35673;51.482;7.436;2023-03-24T03:16:12;12.30;99.90
49777;DHT22;35673;51.482;7.436;2023-03-24T03:18:48;12.40;99.90
49777;DHT22;35673;51.482;7.436;2023-03-24T03:21:14;12.60;99.90
49777;DHT22;35673;51.482;7.436;2023-03-24T03:23:44;12.50;99.90
49777;DHT22;35673;51.482;7.436;2023-03-24T03:26:12;12.60;99.90
49777;DHT22;35673;51.482;7.436;2023-03-24T03:28:39;12.50;99.90
49777;DHT22;35673;51.482;7.436;2023-03-24T03:31:07;12.60;99.90
49777;DHT22;35673;51.482;7.436;2023-03-24T03:33:34;12.60;99.90
49777;DHT22;35673;51.482;7.436;2023-03-24T03:38:50;12.70;99.90
49777;DHT22;35673;51.482;7.436;2023-03-24T03:41:18;12.70;99.90
49777;DHT22;35673;51.482;7.436;2023-03-24T03:43:45;12.70;99.90
49777;DHT22;35673;51.482;7.436;2023-03-24T03:46:11;12.70;99.90
49777;DHT22;35673;51.482;7.436;2023-03-24T03:48:37;12.90;99.90
49777;DHT22;35673;51.482;7.436;2023-03-24T03:51:03;12.70;99.90
49777;DHT22;35673;51.482;7.436;2023-03-24T03:53:40;12.60;99.90
49777;DHT22;35673;51.482;7.436;2023-03-24T03:56:08;12.60;99.90
49777;DHT22;35673;51.482;7.436;2023-03-24T03:58:34;12.60;99.90
49777;DHT22;35673;51.482;7.436;2023-03-24T04:01:00;12.60;99.90
49777;DHT22;35673;51.482;7.436;2023-03-24T04:03:47;12.70;99.90
49777;DHT22;35673;51.482;7.436;2023-03-24T04:06:21;12.70;99.90
49777;DHT22;35673;51.482;7.436;2023-03-24T04:09:15;12.70;99.90
49777;DHT22;35673;51.482;7.436;2023-03-24T04:19:32;12.20;99.90
49777;DHT22;35673;51.482;7.436;2023-03-24T04:22:07;12.20;99.90
49777;DHT22;35673;51.482;7.436;2023-03-24T04:29:29;12.10;99.90
49777;DHT22;35673;51.482;7.436;2023-03-24T04:32:18;12.00;99.90
49777;DHT22;35673;51.482;7.436;2023-03-24T04:34:46;12.00;99.90
49777;DHT22;35673;51.482;7.436;2023-03-24T04:37:16;12.00;99.90
49777;DHT22;35673;51.482;7.436;2023-03-24T04:39:44;12.00;99.90
49777;DHT22;35673;51.482;7.436;2023-03-24T04:42:14;12.00;99.90
49777;DHT22;35673;51.482;7.436;2023-03-24T04:44:42;12.10;99.90
49777;DHT22;35673;51.482;7.436;2023-03-24T04:47:08;12.10;99.90
49777;DHT22;35673;51.482;7.436;2023-03-24T04:49:36;12.00;99.90
49777;DHT22;35673;51.482;7.436;2023-03-24T04:52:02;12.00;99.90
49777;DHT22;35673;51.482;7.436;2023-03-24T04:54:28;12.00;99.90
49777;DHT22;35673;51.482;7.436;2023-03-24T04:56:54;11.90;99.90
49777;DHT22;35673;51.482;7.436;2023-03-24T04:59:20;11.90;99.90
49777;DHT22;35673;51.482;7.436;2023-03-24T05:01:46;11.80;99.90
49777;DHT22;35673;51.482;7.436;2023-03-24T05:04:16;11.70;99.90
49777;DHT22;35673;51.482;7.436;2023-03-24T05:06:42;11.70;99.90
49777;DHT22;35673;51.482;7.436;2023-03-24T05:09:07;11.60;99.90
49777;DHT22;35673;51.482;7.436;2023-03-24T05:11:33;11.50;99.90
49777;DHT22;35673;51.482;7.436;2023-03-24T05:13:58;11.50;99.90
49777;DHT22;35673;51.482;7.436;2023-03-24T05:16:24;11.50;99.90
49777;DHT22;35673;51.482;7.436;2023-03-24T05:18:50;11.60;99.90
49777;DHT22;35673;51.482;7.436;2023-03-24T05:21:15;11.70;99.90
49777;DHT22;35673;51.482;7.436;2023-03-24T05:23:41;11.60;99.90
49777;DHT22;35673;51.482;7.436;2023-03-24T05:26:06;11.70;99.90
49777;DHT22;35673;51.482;7.436;2023-03-24T05:28:32;11.70;99.90
49777;DHT22;35673;51.482;7.436;2023-03-24T05:30:57;11.70;99.90
49777;DHT22;35673;51.482;7.436;2023-03-24T05:33:24;11.80;99.90
49777;DHT22;35673;51.482;7.436;2023-03-24T05:35:50;11.80;99.90
49777;DHT22;35673;51.482;7.436;2023-03-24T05:38:15;11.80;99.90
49777;DHT22;35673;51.482;7.436;2023-03-24T05:40:41;11.80;99.90
49777;DHT22;35673;51.482;7.436;2023-03-24T05:43:06;11.80;99.90
49777;DHT22;35673;51.482;7.436;2023-03-24T05:45:32;11.90;99.90
49777;DHT22;35673;51.482;7.436;2023-03-24T05:47:58;11.90;99.90
49777;DHT22;35673;51.482;7.436;2023-03-24T05:50:24;11.90;99.90
49777;DHT22;35673;51.482;7.436;2023-03-24T05:52:50;11.90;99.90
49777;DHT22;35673;51.482;7.436;2023-03-24T05:55:17;11.80;99.90
49777;DHT22;35673;51.482;7.436;2023-03-24T05:57:43;11.80;99.90
49777;DHT22;35673;51.482;7.436;2023-03-24T06:00:09;11.70;99.90
49777;DHT22;35673;51.482;7.436;2023-03-24T06:02:41;11.70;99.90
49777;DHT22;35673;51.482;7.436;2023-03-24T06:05:07;11.70;99.90
49777;DHT22;35673;51.482;7.436;2023-03-24T06:07:35;11.70;99.90
49777;DHT22;35673;51.482;7.436;2023-03-24T06:10:00;11.70;99.90
49777;DHT22;35673;51.482;7.436;2023-03-24T06:12:32;11.60;99.90
49777;DHT22;35673;51.482;7.436;2023-03-24T06:14:58;11.60;99.90
49777;DHT22;35673;51.482;7.436;2023-03-24T06:17:25;11.50;99.90
49777;DHT22;35673;51.482;7.436;2023-03-24T06:19:53;11.50;99.90
49777;DHT22;35673;51.482;7.436;2023-03-24T06:22:19;11.40;99.90
49777;DHT22;35673;51.482;7.436;2023-03-24T06:24:45;11.40;99.90
49777;DHT22;35673;51.482;7.436;2023-03-24T06:27:11;11.40;99.90
49777;DHT22;35673;51.482;7.436;2023-03-24T06:29:38;11.40;99.90
49777;DHT22;35673;51.482;7.436;2023-03-24T06:32:07;11.30;99.90
49777;DHT22;35673;51.482;7.436;2023-03-24T06:34:33;11.30;99.90
49777;DHT22;35673;51.482;7.436;2023-03-24T06:36:58;11.30;99.90
49777;DHT22;35673;51.482;7.436;2023-03-24T06:39:24;11.30;99.90
49777;DHT22;35673;51.482;7.436;2023-03-24T06:41:50;11.20;99.90
49777;DHT22;35673;51.482;7.436;2023-03-24T06:44:16;11.20;99.90
49777;DHT22;35673;51.482;7.436;2023-03-24T06:46:42;11.10;99.90
49777;DHT22;35673;51.482;7.436;2023-03-24T06:49:09;11.10;99.90
49777;DHT22;35673;51.482;7.436;2023-03-24T06:51:35;11.20;99.90
49777;DHT22;35673;51.482;7.436;2023-03-24T06:54:00;11.20;99.90
49777;DHT22;35673;51.482;7.436;2023-03-24T06:56:27;11.20;99.90
49777;DHT22;35673;51.482;7.436;2023-03-24T06:58:53;11.20;99.90
49777;DHT22;35673;51.482;7.436;2023-03-24T07:01:18;11.20;99.90
49777;DHT22;35673;51.482;7.436;2023-03-24T07:03:44;11.30;99.90
49777;DHT22;35673;51.482;7.436;2023-03-24T07:06:10;11.40;99.90
49777;DHT22;35673;51.482;7.436;2023-03-24T07:08:36;11.30;99.90
49777;DHT22;35673;51.482;7.436;2023-03-24T07:11:01;11.40;99.90
49777;DHT22;35673;51.482;7.436;2023-03-24T07:13:28;11.50;99.90
49777;DHT22;35673;51.482;7.436;2023-03-24T07:15:53;11.50;99.90
49777;DHT22;35673;51.482;7.436;2023-03-24T07:18:19;11.40;99.90
49777;DHT22;35673;51.482;7.436;2023-03-24T07:23:48;11.50;99.90
49777;DHT22;35673;51.482;7.436;2023-03-24T07:26:14;11.50;99.90
49777;DHT22;35673;51.482;7.436;2023-03-24T07:28:39;11.50;99.90
49777;DHT22;35673;51.482;7.436;2023-03-24T07:31:05;11.40;99.90
49777;DHT22;35673;51.482;7.436;2023-03-24T07:33:35;11.40;99.90
49777;DHT22;35673;51.482;7.436;2023-03-24T07:36:01;11.30;99.90
49777;DHT22;35673;51.482;7.436;2023-03-24T07:38:27;11.30;99.90
49777;DHT22;35673;51.482;7.436;2023-03-24T07:40:52;11.30;99.90
49777;DHT22;35673;51.482;7.436;2023-03-24T07:43:18;11.30;99.90
49777;DHT22;35673;51.482;7.436;2023-03-24T07:45:43;11.40;99.90
49777;DHT22;35673;51.482;7.436;2023-03-24T07:48:10;11.50;99.90
49777;DHT22;35673;51.482;7.436;2023-03-24T07:50:35;11.60;99.90
49777;DHT22;35673;51.482;7.436;2023-03-24T07:53:01;11.80;99.90
49777;DHT22;35673;51.482;7.436;2023-03-24T07:55:26;11.70;99.90
49777;DHT22;35673;51.482;7.436;2023-03-24T07:57:52;11.70;99.90
49777;DHT22;35673;51.482;7.436;2023-03-24T08:00:17;11.70;99.90
49777;DHT22;35673;51.482;7.436;2023-03-24T08:02:44;11.80;99.90
49777;DHT22;35673;51.482;7.436;2023-03-24T08:05:11;11.90;99.90
49777;DHT22;35673;51.482;7.436;2023-03-24T08:07:42;11.90;99.90
49777;DHT22;35673;51.482;7.436;2023-03-24T08:10:11;12.10;99.90
49777;DHT22;35673;51.482;7.436;2023-03-24T08:12:38;12.40;99.90
49777;DHT22;35673;51.482;7.436;2023-03-24T08:15:04;12.50;99.90
49777;DHT22;35673;51.482;7.436;2023-03-24T08:17:30;12.60;99.40
49777;DHT22;35673;51.482;7.436;2023-03-24T08:19:56;12.60;97.90
49777;DHT22;35673;51.482;7.436;2023-03-24T08:22:21;12.50;98.90
49777;DHT22;35673;51.482;7.436;2023-03-24T08:24:47;12.50;98.10
49777;DHT22;35673;51.482;7.436;2023-03-24T08:27:12;12.60;98.80
49777;DHT22;35673;51.482;7.436;2023-03-24T08:29:38;12.60;98.40
49777;DHT22;35673;51.482;7.436;2023-03-24T08:32:03;12.70;97.70
49777;DHT22;35673;51.482;7.436;2023-03-24T08:34:32;12.60;98.40
49777;DHT22;35673;51.482;7.436;2023-03-24T08:36:57;12.80;97.00
49777;DHT22;35673;51.482;7.436;2023-03-24T08:39:22;12.80;96.60
49777;DHT22;35673;51.482;7.436;2023-03-24T08:41:48;12.90;96.00
49777;DHT22;35673;51.482;7.436;2023-03-24T08:44:14;13.10;95.70
49777;DHT22;35673;51.482;7.436;2023-03-24T08:46:40;13.40;94.00
49777;DHT22;35673;51.482;7.436;2023-03-24T08:49:05;13.40;94.30
49777;DHT22;35673;51.482;7.436;2023-03-24T08:51:31;13.70;94.70
49777;DHT22;35673;51.482;7.436;2023-03-24T08:53:56;13.70;93.20
49777;DHT22;35673;51.482;7.436;2023-03-24T08:56:24;14.10;93.70
49777;DHT22;35673;51.482;7.436;2023-03-24T08:58:50;13.90;93.40
49777;DHT22;35673;51.482;7.436;2023-03-24T09:01:18;13.70;92.90
49777;DHT22;35673;51.482;7.436;2023-03-24T09:03:43;13.90;93.00
49777;DHT22;35673;51.482;7.436;2023-03-24T09:06:11;13.80;93.00
49777;DHT22;35673;51.482;7.436;2023-03-24T09:08:37;14.00;93.90
49777;DHT22;35673;51.482;7.436;2023-03-24T09:11:03;14.00;92.20
49777;DHT22;35673;51.482;7.436;2023-03-24T09:13:28;13.80;91.70
49777;DHT22;35673;51.482;7.436;2023-03-24T09:15:57;13.90;91.90
49777;DHT22;35673;51.482;7.436;2023-03-24T09:18:23;14.10;91.70
49777;DHT22;35673;51.482;7.436;2023-03-24T09:20:48;13.70;91.60
49777;DHT22;35673;51.482;7.436;2023-03-24T09:23:14;13.80;91.60
49777;DHT22;35673;51.482;7.436;2023-03-24T09:25:40;13.90;91.90
49777;DHT22;35673;51.482;7.436;2023-03-24T09:28:05;13.90;91.00
49777;DHT22;35673;51.482;7.436;2023-03-24T09:30:32;13.90;91.30
49777;DHT22;35673;51.482;7.436;2023-03-24T09:32:57;14.10;91.90
49777;DHT22;35673;51.482;7.436;2023-03-24T09:35:24;14.40;91.30
49777;DHT22;35673;51.482;7.436;2023-03-24T09:37:50;14.50;90.80
49777;DHT22;35673;51.482;7.436;2023-03-24T09:40:19;14.60;91.20
49777;DHT22;35673;51.482;7.436;2023-03-24T09:42:48;14.80;91.10
49777;DHT22;35673;51.482;7.436;2023-03-24T09:45:16;14.80;90.50
49777;DHT22;35673;51.482;7.436;2023-03-24T09:47:44;14.80;90.50
49777;DHT22;35673;51.482;7.436;2023-03-24T09:52:43;15.00;90.00
49777;DHT22;35673;51.482;7.436;2023-03-24T09:55:10;14.90;88.20
49777;DHT22;35673;51.482;7.436;2023-03-24T09:57:39;14.80;89.00
49777;DHT22;35673;51.482;7.436;2023-03-24T10:02:33;14.50;88.70
49777;DHT22;35673;51.482;7.436;2023-03-24T10:04:59;14.60;89.40
49777;DHT22;35673;51.482;7.436;2023-03-24T10:07:38;14.50;89.90
49777;DHT22;35673;51.482;7.436;2023-03-24T10:10:08;14.80;88.80
49777;DHT22;35673;51.482;7.436;2023-03-24T10:12:39;14.70;86.70
49777;DHT22;35673;51.482;7.436;2023-03-24T10:20:15;14.30;87.00
49777;DHT22;35673;51.482;7.436;2023-03-24T10:25:19;14.80;87.20
49777;DHT22;35673;51.482;7.436;2023-03-24T10:27:51;14.70;84.30
49777;DHT22;35673;51.482;7.436;2023-03-24T10:30:19;14.70;85.60
49777;DHT22;35673;51.482;7.436;2023-03-24T10:32:45;14.40;84.40
49777;DHT22;35673;51.482;7.436;2023-03-24T10:35:14;14.60;84.90
49777;DHT22;35673;51.482;7.436;2023-03-24T10:37:42;14.50;85.00
49777;DHT22;35673;51.482;7.436;2023-03-24T10:40:16;14.50;84.80
49777;DHT22;35673;51.482;7.436;2023-03-24T10:42:42;14.50;85.80
49777;DHT22;35673;51.482;7.436;2023-03-24T10:45:12;14.70;84.40
49777;DHT22;35673;51.482;7.436;2023-03-24T10:47:38;14.80;85.50
49777;DHT22;35673;51.482;7.436;2023-03-24T10:50:05;14.90;84.70
49777;DHT22;35673;51.482;7.436;2023-03-24T10:52:42;14.80;84.40
49777;DHT22;35673;51.482;7.436;2023-03-24T10:55:13;15.10;83.20
49777;DHT22;35673;51.482;7.436;2023-03-24T10:57:41;15.20;82.70
49777;DHT22;35673;51.482;7.436;2023-03-24T11:00:08;15.60;84.20
49777;DHT22;35673;51.482;7.436;2023-03-24T11:02:38;15.80;82.50
49777;DHT22;35673;51.482;7.436;2023-03-24T11:05:19;16.00;83.60
49777;DHT22;35673;51.482;7.436;2023-03-24T11:07:47;15.80;80.50
49777;DHT22;35673;51.482;7.436;2023-03-24T11:10:18;16.50;80.80
49777;DHT22;35673;51.482;7.436;2023-03-24T11:15:20;16.80;79.60
49777;DHT22;35673;51.482;7.436;2023-03-24T11:22:53;15.70;80.20
49777;DHT22;35673;51.482;7.436;2023-03-24T11:25:19;15.20;80.30
49777;DHT22;35673;51.482;7.436;2023-03-24T11:27:57;15.10;80.80
49777;DHT22;35673;51.482;7.436;2023-03-24T11:30:31;15.20;80.70
49777;DHT22;35673;51.482;7.436;2023-03-24T11:32:57;14.60;80.90
49777;DHT22;35673;51.482;7.436;2023-03-24T11:35:22;14.70;81.20
49777;DHT22;35673;51.482;7.436;2023-03-24T11:37:48;14.50;81.20
49777;DHT22;35673;51.482;7.436;2023-03-24T11:40:15;14.70;80.50
49777;DHT22;35673;51.482;7.436;2023-03-24T11:45:22;14.50;80.10
49777;DHT22;35673;51.482;7.436;2023-03-24T11:47:50;14.90;79.60
49777;DHT22;35673;51.482;7.436;2023-03-24T11:50:17;14.90;79.70
49777;DHT22;35673;51.482;7.436;2023-03-24T11:52:48;15.10;78.70
49777;DHT22;35673;51.482;7.436;2023-03-24T11:55:18;14.90;79.10
49777;DHT22;35673;51.482;7.436;2023-03-24T11:57:49;15.30;78.50
49777;DHT22;35673;51.482;7.436;2023-03-24T12:00:20;15.70;77.70
49777;DHT22;35673;51.482;7.436;2023-03-24T12:02:54;15.70;76.50
49777;DHT22;35673;51.482;7.436;2023-03-24T12:17:48;16.80;75.10
49777;DHT22;35673;51.482;7.436;2023-03-24T12:20:29;16.60;74.00
49777;DHT22;35673;51.482;7.436;2023-03-24T12:23:09;16.80;73.80
49777;DHT22;35673;51.482;7.436;2023-03-24T12:28:45;16.10;74.80
49777;DHT22;35673;51.482;7.436;2023-03-24T12:38:54;16.30;75.50
49777;DHT22;35673;51.482;7.436;2023-03-24T12:41:24;16.50;75.40
49777;DHT22;35673;51.482;7.436;2023-03-24T12:44:06;17.10;74.60
49777;DHT22;35673;51.482;7.436;2023-03-24T12:49:23;17.20;73.50
49777;DHT22;35673;51.482;7.436;2023-03-24T12:57:13;17.50;73.30
49777;DHT22;35673;51.482;7.436;2023-03-24T12:59:47;17.00;74.40
49777;DHT22;35673;51.482;7.436;2023-03-24T13:02:29;16.80;73.90
49777;DHT22;35673;51.482;7.436;2023-03-24T13:05:02;16.50;73.20
49777;DHT22;35673;51.482;7.436;2023-03-24T13:07:30;16.30;74.10
49777;DHT22;35673;51.482;7.436;2023-03-24T13:10:13;15.90;75.10
49777;DHT22;35673;51.482;7.436;2023-03-24T13:17:36;15.50;76.10
49777;DHT22;35673;51.482;7.436;2023-03-24T13:20:04;15.40;76.60
49777;DHT22;35673;51.482;7.436;2023-03-24T13:22:35;15.20;76.60
49777;DHT22;35673;51.482;7.436;2023-03-24T13:25:01;15.20;76.80
49777;DHT22;35673;51.482;7.436;2023-03-24T13:27:37;16.00;76.10
49777;DHT22;35673;51.482;7.436;2023-03-24T13:30:18;15.60;75.70
49777;DHT22;35673;51.482;7.436;2023-03-24T13:32:48;15.40;76.40
49777;DHT22;35673;51.482;7.436;2023-03-24T13:37:51;15.00;76.80
49777;DHT22;35673;51.482;7.436;2023-03-24T13:40:22;15.00;77.00
49777;DHT22;35673;51.482;7.436;2023-03-24T13:42:51;14.80;78.50
49777;DHT22;35673;51.482;7.436;2023-03-24T13:48:03;14.40;82.50
49777;DHT22;35673;51.482;7.436;2023-03-24T13:50:31;14.20;83.00
49777;DHT22;35673;51.482;7.436;2023-03-24T13:52:57;14.40;82.50
49777;DHT22;35673;51.482;7.436;2023-03-24T13:55:26;14.60;82.60
49777;DHT22;35673;51.482;7.436;2023-03-24T13:57:56;14.60;81.70
49777;DHT22;35673;51.482;7.436;2023-03-24T14:00:23;14.50;81.80
49777;DHT22;35673;51.482;7.436;2023-03-24T14:02:53;14.90;81.80
49777;DHT22;35673;51.482;7.436;2023-03-24T14:15:26;18.10;83.00
49777;DHT22;35673;51.482;7.436;2023-03-24T14:54:27;17.80;88.70
49777;DHT22;35673;51.482;7.436;2023-03-24T14:56:53;19.60;83.30
49777;DHT22;35673;51.482;7.436;2023-03-24T14:59:22;20.90;74.80
49777;DHT22;35673;51.482;7.436;2023-03-24T15:01:50;22.20;73.50
49777;DHT22;35673;51.482;7.436;2023-03-24T15:04:19;22.60;72.80
49777;DHT22;35673;51.482;7.436;2023-03-24T15:06:46;23.10;69.50
49777;DHT22;35673;51.482;7.436;2023-03-24T15:09:13;23.10;67.30
49777;DHT22;35673;51.482;7.436;2023-03-24T15:11:39;20.90;71.90
49777;DHT22;35673;51.482;7.436;2023-03-24T15:14:06;18.50;77.00
49777;DHT22;35673;51.482;7.436;2023-03-24T15:43:22;23.00;58.50
49777;DHT22;35673;51.482;7.436;2023-03-24T15:45:52;20.20;64.40
49777;DHT22;35673;51.482;7.436;2023-03-24T15:48:24;19.60;67.50
49777;DHT22;35673;51.482;7.436;2023-03-24T15:50:58;20.30;66.00
49777;DHT22;35673;51.482;7.436;2023-03-24T15:53:29;19.40;67.20
49777;DHT22;35673;51.482;7.436;2023-03-24T15:56:03;18.00;69.20
49777;DHT22;35673;51.482;7.436;2023-03-24T15:58:29;17.00;71.30
49777;DHT22;35673;51.482;7.436;2023-03-24T16:00:58;16.10;73.20
49777;DHT22;35673;51.482;7.436;2023-03-24T16:03:24;15.50;74.60
49777;DHT22;35673;51.482;7.436;2023-03-24T16:05:51;14.90;75.80
49777;DHT22;35673;51.482;7.436;2023-03-24T16:08:24;14.80;77.10
49777;DHT22;35673;51.482;7.436;2023-03-24T16:10:58;14.70;77.00
49777;DHT22;35673;51.482;7.436;2023-03-24T16:13:24;14.50;76.80
49777;DHT22;35673;51.482;7.436;2023-03-24T16:16:07;14.40;77.60
49777;DHT22;35673;51.482;7.436;2023-03-24T16:18:46;14.20;77.00
49777;DHT22;35673;51.482;7.436;2023-03-24T16:23:41;13.90;79.10
49777;DHT22;35673;51.482;7.436;2023-03-24T16:29:12;14.00;80.80
49777;DHT22;35673;51.482;7.436;2023-03-24T16:31:41;13.90;81.00
49777;DHT22;35673;51.482;7.436;2023-03-24T16:34:06;13.00;96.10
49777;DHT22;35673;51.482;7.436;2023-03-24T16:36:32;11.50;99.90
49777;DHT22;35673;51.482;7.436;2023-03-24T16:38:58;10.60;99.90
49777;DHT22;35673;51.482;7.436;2023-03-24T16:41:25;10.00;99.90
49777;DHT22;35673;51.482;7.436;2023-03-24T16:43:51;9.90;99.90
49777;DHT22;35673;51.482;7.436;2023-03-24T16:46:28;9.90;99.90
49777;DHT22;35673;51.482;7.436;2023-03-24T16:48:54;9.70;99.90
49777;DHT22;35673;51.482;7.436;2023-03-24T16:51:20;9.70;99.90
49777;DHT22;35673;51.482;7.436;2023-03-24T16:53:46;9.80;99.90
49777;DHT22;35673;51.482;7.436;2023-03-24T16:56:12;9.90;99.90
49777;DHT22;35673;51.482;7.436;2023-03-24T16:58:37;10.50;99.90
49777;DHT22;35673;51.482;7.436;2023-03-24T17:01:09;11.60;99.90
49777;DHT22;35673;51.482;7.436;2023-03-24T17:03:38;12.00;99.90
49777;DHT22;35673;51.482;7.436;2023-03-24T17:06:04;12.20;99.90
49777;DHT22;35673;51.482;7.436;2023-03-24T17:08:30;11.80;99.90
49777;DHT22;35673;51.482;7.436;2023-03-24T17:10:56;12.70;99.90
49777;DHT22;35673;51.482;7.436;2023-03-24T17:13:23;13.80;99.90
49777;DHT22;35673;51.482;7.436;2023-03-24T17:15:49;13.70;99.90
49777;DHT22;35673;51.482;7.436;2023-03-24T17:18:14;13.50;99.90
49777;DHT22;35673;51.482;7.436;2023-03-24T17:20:40;13.30;99.90
49777;DHT22;35673;51.482;7.436;2023-03-24T17:23:06;13.00;99.90
49777;DHT22;35673;51.482;7.436;2023-03-24T17:25:32;12.50;99.90
49777;DHT22;35673;51.482;7.436;2023-03-24T17:27:57;12.20;99.90
49777;DHT22;35673;51.482;7.436;2023-03-24T17:30:24;11.70;99.90
49777;DHT22;35673;51.482;7.436;2023-03-24T17:32:49;11.40;99.90
49777;DHT22;35673;51.482;7.436;2023-03-24T17:35:17;11.20;99.90
49777;DHT22;35673;51.482;7.436;2023-03-24T17:37:42;11.10;99.90
49777;DHT22;35673;51.482;7.436;2023-03-24T17:40:11;11.00;99.90
49777;DHT22;35673;51.482;7.436;2023-03-24T17:42:38;10.90;99.90
49777;DHT22;35673;51.482;7.436;2023-03-24T17:45:04;10.80;99.90
49777;DHT22;35673;51.482;7.436;2023-03-24T17:47:31;10.70;99.90
49777;DHT22;35673;51.482;7.436;2023-03-24T17:49:56;10.60;99.90
49777;DHT22;35673;51.482;7.436;2023-03-24T17:52:22;10.60;99.90
49777;DHT22;35673;51.482;7.436;2023-03-24T17:54:48;10.50;99.90
49777;DHT22;35673;51.482;7.436;2023-03-24T17:57:13;10.50;99.90
49777;DHT22;35673;51.482;7.436;2023-03-24T17:59:39;10.50;99.90
49777;DHT22;35673;51.482;7.436;2023-03-24T18:02:04;10.50;99.90
49777;DHT22;35673;51.482;7.436;2023-03-24T18:04:30;10.50;99.90
49777;DHT22;35673;51.482;7.436;2023-03-24T18:06:56;10.50;99.90
49777;DHT22;35673;51.482;7.436;2023-03-24T18:09:22;10.50;99.90
49777;DHT22;35673;51.482;7.436;2023-03-24T18:11:47;10.50;99.90
49777;DHT22;35673;51.482;7.436;2023-03-24T18:14:13;10.40;99.90
49777;DHT22;35673;51.482;7.436;2023-03-24T18:16:38;10.40;99.90
49777;DHT22;35673;51.482;7.436;2023-03-24T18:19:04;10.40;99.90
49777;DHT22;35673;51.482;7.436;2023-03-24T18:21:29;10.40;99.90
49777;DHT22;35673;51.482;7.436;2023-03-24T18:23:55;10.40;99.90
49777;DHT22;35673;51.482;7.436;2023-03-24T18:26:21;10.40;99.90
49777;DHT22;35673;51.482;7.436;2023-03-24T18:28:47;10.30;99.90
49777;DHT22;35673;51.482;7.436;2023-03-24T18:31:16;10.30;99.90
49777;DHT22;35673;51.482;7.436;2023-03-24T18:33:45;10.30;99.90
49777;DHT22;35673;51.482;7.436;2023-03-24T18:36:12;10.30;99.90
49777;DHT22;35673;51.482;7.436;2023-03-24T18:38:40;10.20;99.90
49777;DHT22;35673;51.482;7.436;2023-03-24T18:41:07;10.20;99.90
49777;DHT22;35673;51.482;7.436;2023-03-24T18:43:34;10.20;99.90
49777;DHT22;35673;51.482;7.436;2023-03-24T18:46:02;10.20;99.90
49777;DHT22;35673;51.482;7.436;2023-03-24T18:48:27;10.20;99.90
49777;DHT22;35673;51.482;7.436;2023-03-24T18:50:53;10.20;99.90
49777;DHT22;35673;51.482;7.436;2023-03-24T18:53:18;10.20;99.90
49777;DHT22;35673;51.482;7.436;2023-03-24T18:55:45;10.20;99.90